Current Conditions
Clear
Conditions



Pressure
1020.92 (mb) - 30.15 (inHG)
Visibility

6.2 (miles) - 10.0 (km)
Temperature
5  °C
Temperature
-1  °C
Dewpoint
66  %
 Humidity
Wind Speed
15  mph
13  kts
24  km/h
6.7  m/s
Wind Direction
N
45°
E
90°
135°
S
180°
225°
W
270°
315°
 270°

Due West
Airport Data
EGGD
Bristol Airport
Metar :EGGD 111550Z AUTO 27013KT 9999 NCD 05/M01 Q1021
Sun 11th April 16:50 pm
Raw Metar Info
Raw METAR is the most common format in the world for the transmission of observational weather data. It is highly standardized through the International Civil Aviation Organization (ICAO), which allows it to be understood throughout most of the world.
API Info
Data Provided by
https://www.checkwx.com/weather/EGGD

Aviation Weather providing METAR, TAF, AIRMET, SIGMET and OUTLOOK Weather Reports
© Info
CSS/SVG/PHP scripts were developed by weather34.com for use in the weather34 template © 2015-2021

Guide Info provided by Metar-Wikipedia